sensor_id;sensor_type;location;lat;lon;timestamp;P1;durP1;ratioP1;P2;durP2;ratioP2
64018;SDS011;66942;52.138;5.216;2023-04-06T00:02:35;25.7;;;23.3;;
64018;SDS011;66942;52.138;5.216;2023-04-06T00:04:11;27.5;;;24.8;;
64018;SDS011;66942;52.138;5.216;2023-04-06T00:05:47;28.7;;;26.0;;
64018;SDS011;66942;52.138;5.216;2023-04-06T00:09:00;26.4;;;23.9;;
64018;SDS011;66942;52.138;5.216;2023-04-06T00:10:37;25.9;;;23.5;;
64018;SDS011;66942;52.138;5.216;2023-04-06T00:12:13;25.6;;;23.2;;
64018;SDS011;66942;52.138;5.216;2023-04-06T00:15:25;25.6;;;23.2;;
64018;SDS011;66942;52.138;5.216;2023-04-06T00:17:02;26.4;;;23.9;;
64018;SDS011;66942;52.138;5.216;2023-04-06T00:18:38;25.7;;;23.2;;
64018;SDS011;66942;52.138;5.216;2023-04-06T00:20:15;24.5;;;22.4;;
64018;SDS011;66942;52.138;5.216;2023-04-06T00:23:28;24.0;;;21.8;;
64018;SDS011;66942;52.138;5.216;2023-04-06T00:25:04;24.4;;;22.2;;
64018;SDS011;66942;52.138;5.216;2023-04-06T00:26:41;25.1;;;22.5;;
64018;SDS011;66942;52.138;5.216;2023-04-06T00:29:53;23.3;;;21.3;;
64018;SDS011;66942;52.138;5.216;2023-04-06T00:31:29;24.2;;;22.0;;
64018;SDS011;66942;52.138;5.216;2023-04-06T00:33:05;24.5;;;22.2;;
64018;SDS011;66942;52.138;5.216;2023-04-06T00:36:18;23.7;;;21.5;;
64018;SDS011;66942;52.138;5.216;2023-04-06T00:37:54;27.5;;;24.9;;
64018;SDS011;66942;52.138;5.216;2023-04-06T00:39:30;23.4;;;21.2;;
64018;SDS011;66942;52.138;5.216;2023-04-06T00:42:42;24.3;;;22.1;;
64018;SDS011;66942;52.138;5.216;2023-04-06T00:44:19;24.2;;;22.1;;
64018;SDS011;66942;52.138;5.216;2023-04-06T00:45:56;22.2;;;20.11;;
64018;SDS011;66942;52.138;5.216;2023-04-06T00:47:32;22.8;;;20.9;;
64018;SDS011;66942;52.138;5.216;2023-04-06T00:50:45;24.4;;;22.1;;
64018;SDS011;66942;52.138;5.216;2023-04-06T00:52:21;23.8;;;21.7;;
64018;SDS011;66942;52.138;5.216;2023-04-06T00:53:58;25.2;;;22.8;;
64018;SDS011;66942;52.138;5.216;2023-04-06T00:57:11;24.4;;;22.2;;
64018;SDS011;66942;52.138;5.216;2023-04-06T00:58:48;23.9;;;21.7;;
64018;SDS011;66942;52.138;5.216;2023-04-06T01:00:24;23.6;;;21.4;;
64018;SDS011;66942;52.138;5.216;2023-04-06T01:03:36;24.2;;;21.9;;
64018;SDS011;66942;52.138;5.216;2023-04-06T01:05:12;23.2;;;21.1;;
64018;SDS011;66942;52.138;5.216;2023-04-06T01:06:48;23.8;;;21.7;;
64018;SDS011;66942;52.138;5.216;2023-04-06T01:08:24;23.0;;;20.9;;
64018;SDS011;66942;52.138;5.216;2023-04-06T01:11:40;22.1;;;20.2;;
64018;SDS011;66942;52.138;5.216;2023-04-06T01:13:16;21.3;;;19.61;;
64018;SDS011;66942;52.138;5.216;2023-04-06T01:14:52;21.9;;;20.0;;
64018;SDS011;66942;52.138;5.216;2023-04-06T01:18:04;22.9;;;20.8;;
64018;SDS011;66942;52.138;5.216;2023-04-06T01:19:40;21.4;;;19.5;;
64018;SDS011;66942;52.138;5.216;2023-04-06T01:21:16;21.4;;;19.41;;
64018;SDS011;66942;52.138;5.216;2023-04-06T01:24:29;22.5;;;20.41;;
64018;SDS011;66942;52.138;5.216;2023-04-06T01:26:05;21.8;;;19.91;;
64018;SDS011;66942;52.138;5.216;2023-04-06T01:27:41;22.1;;;20.0;;
64018;SDS011;66942;52.138;5.216;2023-04-06T01:29:17;21.6;;;19.61;;
64018;SDS011;66942;52.138;5.216;2023-04-06T01:32:30;20.9;;;19.11;;
64018;SDS011;66942;52.138;5.216;2023-04-06T01:34:06;22.0;;;20.11;;
64018;SDS011;66942;52.138;5.216;2023-04-06T01:35:42;21.1;;;19.2;;
64018;SDS011;66942;52.138;5.216;2023-04-06T01:38:54;21.8;;;19.91;;
64018;SDS011;66942;52.138;5.216;2023-04-06T01:40:30;21.4;;;19.5;;
64018;SDS011;66942;52.138;5.216;2023-04-06T01:42:06;21.3;;;19.41;;
64018;SDS011;66942;52.138;5.216;2023-04-06T01:45:19;19.91;;;18.2;;
64018;SDS011;66942;52.138;5.216;2023-04-06T01:46:55;21.1;;;19.2;;
64018;SDS011;66942;52.138;5.216;2023-04-06T01:48:31;19.91;;;18.0;;
64018;SDS011;66942;52.138;5.216;2023-04-06T01:51:43;20.5;;;18.8;;
64018;SDS011;66942;52.138;5.216;2023-04-06T01:53:19;20.3;;;18.3;;
64018;SDS011;66942;52.138;5.216;2023-04-06T01:54:55;19.7;;;18.11;;
64018;SDS011;66942;52.138;5.216;2023-04-06T01:56:32;19.8;;;18.11;;
64018;SDS011;66942;52.138;5.216;2023-04-06T01:59:44;19.2;;;17.41;;
64018;SDS011;66942;52.138;5.216;2023-04-06T02:01:20;18.2;;;16.7;;
64018;SDS011;66942;52.138;5.216;2023-04-06T02:02:56;19.3;;;17.7;;
64018;SDS011;66942;52.138;5.216;2023-04-06T02:06:08;18.5;;;17.0;;
64018;SDS011;66942;52.138;5.216;2023-04-06T02:07:45;18.8;;;17.2;;
64018;SDS011;66942;52.138;5.216;2023-04-06T02:09:21;19.5;;;17.8;;
64018;SDS011;66942;52.138;5.216;2023-04-06T02:12:33;17.8;;;16.3;;
64018;SDS011;66942;52.138;5.216;2023-04-06T02:14:09;18.8;;;17.2;;
64018;SDS011;66942;52.138;5.216;2023-04-06T02:15:45;18.41;;;17.0;;
64018;SDS011;66942;52.138;5.216;2023-04-06T02:18:58;18.11;;;16.4;;
64018;SDS011;66942;52.138;5.216;2023-04-06T02:20:34;18.61;;;17.11;;
64018;SDS011;66942;52.138;5.216;2023-04-06T02:22:10;18.11;;;16.7;;
64018;SDS011;66942;52.138;5.216;2023-04-06T02:23:46;18.11;;;16.7;;
64018;SDS011;66942;52.138;5.216;2023-04-06T02:26:58;19.0;;;17.41;;
64018;SDS011;66942;52.138;5.216;2023-04-06T02:28:35;17.11;;;15.8;;
64018;SDS011;66942;52.138;5.216;2023-04-06T02:30:12;18.41;;;16.8;;
64018;SDS011;66942;52.138;5.216;2023-04-06T02:33:24;17.8;;;16.3;;
64018;SDS011;66942;52.138;5.216;2023-04-06T02:35:00;18.11;;;16.5;;
64018;SDS011;66942;52.138;5.216;2023-04-06T02:36:37;17.5;;;16.11;;
64018;SDS011;66942;52.138;5.216;2023-04-06T02:39:50;17.11;;;15.8;;
64018;SDS011;66942;52.138;5.216;2023-04-06T02:41:26;16.9;;;15.5;;
64018;SDS011;66942;52.138;5.216;2023-04-06T02:43:02;16.11;;;14.8;;
64018;SDS011;66942;52.138;5.216;2023-04-06T02:44:38;15.9;;;14.5;;
64018;SDS011;66942;52.138;5.216;2023-04-06T02:47:50;15.9;;;14.5;;
64018;SDS011;66942;52.138;5.216;2023-04-06T02:49:26;15.5;;;14.2;;
64018;SDS011;66942;52.138;5.216;2023-04-06T02:51:03;15.1;;;13.9;;
64018;SDS011;66942;52.138;5.216;2023-04-06T02:54:15;14.7;;;13.5;;
64018;SDS011;66942;52.138;5.216;2023-04-06T02:55:51;14.4;;;13.2;;
64018;SDS011;66942;52.138;5.216;2023-04-06T02:57:27;14.7;;;13.6;;
64018;SDS011;66942;52.138;5.216;2023-04-06T03:00:39;14.7;;;13.5;;
64018;SDS011;66942;52.138;5.216;2023-04-06T03:02:15;15.2;;;14.0;;
64018;SDS011;66942;52.138;5.216;2023-04-06T03:03:52;15.4;;;14.2;;
64018;SDS011;66942;52.138;5.216;2023-04-06T03:07:04;15.1;;;14.0;;
64018;SDS011;66942;52.138;5.216;2023-04-06T03:08:40;15.7;;;14.4;;
64018;SDS011;66942;52.138;5.216;2023-04-06T03:10:16;15.4;;;14.2;;
64018;SDS011;66942;52.138;5.216;2023-04-06T03:11:52;15.1;;;13.8;;
64018;SDS011;66942;52.138;5.216;2023-04-06T03:15:05;16.11;;;14.8;;
64018;SDS011;66942;52.138;5.216;2023-04-06T03:16:42;15.4;;;14.1;;
64018;SDS011;66942;52.138;5.216;2023-04-06T03:18:20;15.5;;;14.4;;
64018;SDS011;66942;52.138;5.216;2023-04-06T03:21:33;15.3;;;14.1;;
64018;SDS011;66942;52.138;5.216;2023-04-06T03:23:09;16.4;;;15.0;;
64018;SDS011;66942;52.138;5.216;2023-04-06T03:24:45;16.7;;;15.5;;
64018;SDS011;66942;52.138;5.216;2023-04-06T03:27:58;17.11;;;15.7;;
64018;SDS011;66942;52.138;5.216;2023-04-06T03:29:34;17.0;;;15.5;;
64018;SDS011;66942;52.138;5.216;2023-04-06T03:31:10;16.3;;;15.0;;
64018;SDS011;66942;52.138;5.216;2023-04-06T03:32:46;16.61;;;15.4;;
64018;SDS011;66942;52.138;5.216;2023-04-06T03:35:59;16.7;;;15.3;;
64018;SDS011;66942;52.138;5.216;2023-04-06T03:37:35;18.41;;;16.9;;
64018;SDS011;66942;52.138;5.216;2023-04-06T03:39:11;18.11;;;16.61;;
64018;SDS011;66942;52.138;5.216;2023-04-06T03:42:24;17.91;;;16.3;;
64018;SDS011;66942;52.138;5.216;2023-04-06T03:44:00;17.0;;;15.6;;
64018;SDS011;66942;52.138;5.216;2023-04-06T03:45:36;17.3;;;16.0;;
64018;SDS011;66942;52.138;5.216;2023-04-06T03:48:49;18.5;;;16.9;;
64018;SDS011;66942;52.138;5.216;2023-04-06T03:50:25;18.91;;;17.3;;
64018;SDS011;66942;52.138;5.216;2023-04-06T03:52:01;18.3;;;16.9;;
64018;SDS011;66942;52.138;5.216;2023-04-06T03:53:37;19.0;;;17.3;;
64018;SDS011;66942;52.138;5.216;2023-04-06T03:56:49;18.7;;;17.2;;
64018;SDS011;66942;52.138;5.216;2023-04-06T03:58:25;18.2;;;16.61;;
64018;SDS011;66942;52.138;5.216;2023-04-06T04:00:01;20.0;;;18.0;;
64018;SDS011;66942;52.138;5.216;2023-04-06T04:03:13;18.91;;;17.3;;
64018;SDS011;66942;52.138;5.216;2023-04-06T04:04:49;19.2;;;17.5;;
64018;SDS011;66942;52.138;5.216;2023-04-06T04:06:25;19.2;;;17.5;;
64018;SDS011;66942;52.138;5.216;2023-04-06T04:09:37;19.7;;;17.8;;
64018;SDS011;66942;52.138;5.216;2023-04-06T04:11:14;19.3;;;17.5;;
64018;SDS011;66942;52.138;5.216;2023-04-06T04:12:50;18.5;;;17.0;;
64018;SDS011;66942;52.138;5.216;2023-04-06T04:16:02;19.8;;;18.0;;
64018;SDS011;66942;52.138;5.216;2023-04-06T04:17:39;19.7;;;18.0;;
64018;SDS011;66942;52.138;5.216;2023-04-06T04:19:15;20.2;;;18.3;;
64018;SDS011;66942;52.138;5.216;2023-04-06T04:20:51;20.11;;;18.3;;
64018;SDS011;66942;52.138;5.216;2023-04-06T04:24:03;19.91;;;18.2;;
64018;SDS011;66942;52.138;5.216;2023-04-06T04:25:40;20.0;;;18.3;;
64018;SDS011;66942;52.138;5.216;2023-04-06T04:32:14;19.7;;;18.0;;
64018;SDS011;66942;52.138;5.216;2023-04-06T04:33:50;19.7;;;18.0;;
64018;SDS011;66942;52.138;5.216;2023-04-06T04:35:27;21.0;;;19.2;;
64018;SDS011;66942;52.138;5.216;2023-04-06T04:38:39;20.6;;;18.61;;
64018;SDS011;66942;52.138;5.216;2023-04-06T04:40:15;20.8;;;18.91;;
64018;SDS011;66942;52.138;5.216;2023-04-06T04:41:52;19.7;;;18.0;;
64018;SDS011;66942;52.138;5.216;2023-04-06T04:45:05;20.7;;;18.91;;
64018;SDS011;66942;52.138;5.216;2023-04-06T04:46:41;20.9;;;19.11;;
64018;SDS011;66942;52.138;5.216;2023-04-06T04:48:18;20.9;;;19.11;;
64018;SDS011;66942;52.138;5.216;2023-04-06T04:51:30;20.0;;;18.3;;
64018;SDS011;66942;52.138;5.216;2023-04-06T04:53:06;20.5;;;18.5;;
64018;SDS011;66942;52.138;5.216;2023-04-06T04:54:43;20.3;;;18.5;;
64018;SDS011;66942;52.138;5.216;2023-04-06T04:57:55;20.7;;;19.0;;
64018;SDS011;66942;52.138;5.216;2023-04-06T05:01:11;20.5;;;18.5;;
64018;SDS011;66942;52.138;5.216;2023-04-06T05:02:47;20.7;;;18.91;;
64018;SDS011;66942;52.138;5.216;2023-04-06T05:05:59;20.8;;;19.11;;
64018;SDS011;66942;52.138;5.216;2023-04-06T05:07:36;20.8;;;18.91;;
64018;SDS011;66942;52.138;5.216;2023-04-06T05:09:13;21.2;;;19.2;;
64018;SDS011;66942;52.138;5.216;2023-04-06T05:12:26;21.9;;;20.0;;
64018;SDS011;66942;52.138;5.216;2023-04-06T05:14:02;21.4;;;19.5;;
64018;SDS011;66942;52.138;5.216;2023-04-06T05:15:39;21.7;;;19.8;;
64018;SDS011;66942;52.138;5.216;2023-04-06T05:18:52;21.1;;;19.3;;
64018;SDS011;66942;52.138;5.216;2023-04-06T05:20:28;22.1;;;20.11;;
64018;SDS011;66942;52.138;5.216;2023-04-06T05:22:05;21.3;;;19.61;;
64018;SDS011;66942;52.138;5.216;2023-04-06T05:23:41;21.7;;;19.8;;
64018;SDS011;66942;52.138;5.216;2023-04-06T05:26:55;20.9;;;19.0;;
64018;SDS011;66942;52.138;5.216;2023-04-06T05:28:31;21.8;;;19.7;;
64018;SDS011;66942;52.138;5.216;2023-04-06T05:30:08;22.1;;;20.2;;
64018;SDS011;66942;52.138;5.216;2023-04-06T05:33:22;21.4;;;19.61;;
64018;SDS011;66942;52.138;5.216;2023-04-06T05:34:59;23.3;;;21.1;;
64018;SDS011;66942;52.138;5.216;2023-04-06T05:36:36;22.1;;;20.11;;
64018;SDS011;66942;52.138;5.216;2023-04-06T05:39:48;22.5;;;20.3;;
64018;SDS011;66942;52.138;5.216;2023-04-06T05:41:24;23.1;;;21.1;;
64018;SDS011;66942;52.138;5.216;2023-04-06T05:43:01;22.6;;;20.6;;
64018;SDS011;66942;52.138;5.216;2023-04-06T05:44:37;24.2;;;22.0;;
64018;SDS011;66942;52.138;5.216;2023-04-06T05:47:51;23.0;;;21.1;;
64018;SDS011;66942;52.138;5.216;2023-04-06T05:49:27;23.1;;;21.0;;
64018;SDS011;66942;52.138;5.216;2023-04-06T05:51:03;22.6;;;20.5;;
64018;SDS011;66942;52.138;5.216;2023-04-06T05:54:17;22.6;;;20.7;;
64018;SDS011;66942;52.138;5.216;2023-04-06T05:55:52;22.6;;;20.7;;
64018;SDS011;66942;52.138;5.216;2023-04-06T05:57:29;23.2;;;21.1;;
64018;SDS011;66942;52.138;5.216;2023-04-06T06:00:42;24.4;;;22.0;;
64018;SDS011;66942;52.138;5.216;2023-04-06T06:02:19;24.2;;;22.0;;
64018;SDS011;66942;52.138;5.216;2023-04-06T06:03:57;23.9;;;21.7;;
64018;SDS011;66942;52.138;5.216;2023-04-06T06:05:33;24.9;;;22.6;;
64018;SDS011;66942;52.138;5.216;2023-04-06T06:08:46;24.2;;;21.9;;
64018;SDS011;66942;52.138;5.216;2023-04-06T06:10:22;25.5;;;23.3;;
64018;SDS011;66942;52.138;5.216;2023-04-06T06:11:59;24.1;;;22.0;;
64018;SDS011;66942;52.138;5.216;2023-04-06T06:15:12;25.1;;;22.8;;
64018;SDS011;66942;52.138;5.216;2023-04-06T06:16:48;24.9;;;22.6;;
64018;SDS011;66942;52.138;5.216;2023-04-06T06:18:24;24.2;;;22.2;;
64018;SDS011;66942;52.138;5.216;2023-04-06T06:21:36;23.9;;;21.7;;
64018;SDS011;66942;52.138;5.216;2023-04-06T06:23:12;24.4;;;22.4;;
64018;SDS011;66942;52.138;5.216;2023-04-06T06:24:50;25.2;;;22.8;;
64018;SDS011;66942;52.138;5.216;2023-04-06T06:26:26;26.2;;;23.7;;
64018;SDS011;66942;52.138;5.216;2023-04-06T06:29:38;24.8;;;22.5;;
64018;SDS011;66942;52.138;5.216;2023-04-06T06:31:14;25.3;;;23.0;;
64018;SDS011;66942;52.138;5.216;2023-04-06T06:32:51;25.6;;;23.3;;
64018;SDS011;66942;52.138;5.216;2023-04-06T06:36:04;26.8;;;24.4;;
64018;SDS011;66942;52.138;5.216;2023-04-06T06:37:40;26.0;;;23.5;;
64018;SDS011;66942;52.138;5.216;2023-04-06T06:39:16;25.0;;;22.8;;
64018;SDS011;66942;52.138;5.216;2023-04-06T06:42:28;26.3;;;23.7;;
64018;SDS011;66942;52.138;5.216;2023-04-06T06:44:04;25.4;;;23.0;;
64018;SDS011;66942;52.138;5.216;2023-04-06T06:45:41;25.5;;;23.2;;
64018;SDS011;66942;52.138;5.216;2023-04-06T06:47:17;25.1;;;22.8;;
64018;SDS011;66942;52.138;5.216;2023-04-06T06:50:30;26.0;;;23.7;;
64018;SDS011;66942;52.138;5.216;2023-04-06T06:52:06;28.7;;;26.2;;
64018;SDS011;66942;52.138;5.216;2023-04-06T06:53:42;28.7;;;26.2;;
64018;SDS011;66942;52.138;5.216;2023-04-06T06:56:54;28.2;;;25.6;;
64018;SDS011;66942;52.138;5.216;2023-04-06T06:58:30;30.0;;;27.1;;
64018;SDS011;66942;52.138;5.216;2023-04-06T07:00:07;29.3;;;26.5;;
64018;SDS011;66942;52.138;5.216;2023-04-06T07:03:21;29.1;;;26.4;;
64018;SDS011;66942;52.138;5.216;2023-04-06T07:04:57;28.3;;;25.9;;
64018;SDS011;66942;52.138;5.216;2023-04-06T07:06:34;29.7;;;27.1;;
64018;SDS011;66942;52.138;5.216;2023-04-06T07:08:11;29.7;;;27.1;;
64018;SDS011;66942;52.138;5.216;2023-04-06T07:11:24;29.5;;;26.8;;
64018;SDS011;66942;52.138;5.216;2023-04-06T07:13:00;29.3;;;26.6;;
64018;SDS011;66942;52.138;5.216;2023-04-06T07:14:36;29.8;;;27.0;;
64018;SDS011;66942;52.138;5.216;2023-04-06T07:17:48;29.9;;;27.2;;
64018;SDS011;66942;52.138;5.216;2023-04-06T07:19:24;29.8;;;27.0;;
64018;SDS011;66942;52.138;5.216;2023-04-06T07:21:00;29.1;;;26.6;;
64018;SDS011;66942;52.138;5.216;2023-04-06T07:24:14;30.5;;;27.6;;
64018;SDS011;66942;52.138;5.216;2023-04-06T07:25:50;30.0;;;27.3;;
64018;SDS011;66942;52.138;5.216;2023-04-06T07:27:26;29.8;;;27.2;;
64018;SDS011;66942;52.138;5.216;2023-04-06T07:30:38;30.6;;;27.8;;
64018;SDS011;66942;52.138;5.216;2023-04-06T07:32:16;30.8;;;27.8;;
64018;SDS011;66942;52.138;5.216;2023-04-06T07:33:51;30.2;;;27.5;;
64018;SDS011;66942;52.138;5.216;2023-04-06T07:35:28;30.2;;;27.4;;
64018;SDS011;66942;52.138;5.216;2023-04-06T07:38:40;30.3;;;27.6;;
64018;SDS011;66942;52.138;5.216;2023-04-06T07:40:16;29.5;;;26.8;;
64018;SDS011;66942;52.138;5.216;2023-04-06T07:41:52;29.9;;;27.1;;
64018;SDS011;66942;52.138;5.216;2023-04-06T07:45:05;31.1;;;28.3;;
64018;SDS011;66942;52.138;5.216;2023-04-06T07:46:42;29.3;;;26.7;;
64018;SDS011;66942;52.138;5.216;2023-04-06T07:48:18;30.9;;;28.0;;
64018;SDS011;66942;52.138;5.216;2023-04-06T07:51:30;30.1;;;27.3;;
64018;SDS011;66942;52.138;5.216;2023-04-06T07:53:08;29.9;;;27.3;;
64018;SDS011;66942;52.138;5.216;2023-04-06T07:54:44;30.9;;;28.1;;
64018;SDS011;66942;52.138;5.216;2023-04-06T07:56:20;30.3;;;27.6;;
64018;SDS011;66942;52.138;5.216;2023-04-06T07:59:33;31.0;;;28.0;;
64018;SDS011;66942;52.138;5.216;2023-04-06T08:01:09;30.5;;;27.8;;
64018;SDS011;66942;52.138;5.216;2023-04-06T08:02:45;32.4;;;29.4;;
64018;SDS011;66942;52.138;5.216;2023-04-06T08:05:57;32.21;;;29.4;;
64018;SDS011;66942;52.138;5.216;2023-04-06T08:07:33;31.5;;;28.5;;
64018;SDS011;66942;52.138;5.216;2023-04-06T08:09:09;32.4;;;29.3;;
64018;SDS011;66942;52.138;5.216;2023-04-06T08:12:21;32.3;;;29.3;;
64018;SDS011;66942;52.138;5.216;2023-04-06T08:13:57;32.1;;;29.0;;
64018;SDS011;66942;52.138;5.216;2023-04-06T08:15:33;31.6;;;28.8;;
64018;SDS011;66942;52.138;5.216;2023-04-06T08:18:45;31.9;;;29.0;;
64018;SDS011;66942;52.138;5.216;2023-04-06T08:20:21;31.3;;;28.2;;
64018;SDS011;66942;52.138;5.216;2023-04-06T08:21:58;32.5;;;29.6;;
64018;SDS011;66942;52.138;5.216;2023-04-06T08:23:34;31.8;;;29.0;;
64018;SDS011;66942;52.138;5.216;2023-04-06T08:26:45;32.21;;;29.5;;
64018;SDS011;66942;52.138;5.216;2023-04-06T08:28:21;32.6;;;29.7;;
64018;SDS011;66942;52.138;5.216;2023-04-06T08:29:57;32.6;;;29.7;;
64018;SDS011;66942;52.138;5.216;2023-04-06T08:33:10;32.71;;;29.5;;
64018;SDS011;66942;52.138;5.216;2023-04-06T08:34:46;33.1;;;30.1;;
64018;SDS011;66942;52.138;5.216;2023-04-06T08:36:22;33.3;;;30.2;;
64018;SDS011;66942;52.138;5.216;2023-04-06T08:39:34;33.3;;;30.4;;
64018;SDS011;66942;52.138;5.216;2023-04-06T08:41:11;34.71;;;31.7;;
64018;SDS011;66942;52.138;5.216;2023-04-06T08:42:49;33.6;;;30.6;;
64018;SDS011;66942;52.138;5.216;2023-04-06T08:44:30;33.4;;;30.5;;
64018;SDS011;66942;52.138;5.216;2023-04-06T08:47:44;33.9;;;30.8;;
64018;SDS011;66942;52.138;5.216;2023-04-06T08:49:22;33.3;;;29.7;;
64018;SDS011;66942;52.138;5.216;2023-04-06T08:50:58;34.31;;;30.8;;
64018;SDS011;66942;52.138;5.216;2023-04-06T08:54:12;34.4;;;31.2;;
64018;SDS011;66942;52.138;5.216;2023-04-06T08:55:48;35.0;;;31.7;;
64018;SDS011;66942;52.138;5.216;2023-04-06T08:57:26;35.6;;;32.1;;
64018;SDS011;66942;52.138;5.216;2023-04-06T08:59:03;35.4;;;32.1;;
64018;SDS011;66942;52.138;5.216;2023-04-06T09:02:17;34.0;;;30.7;;
64018;SDS011;66942;52.138;5.216;2023-04-06T09:03:56;32.6;;;29.6;;
64018;SDS011;66942;52.138;5.216;2023-04-06T09:05:33;34.1;;;30.9;;
64018;SDS011;66942;52.138;5.216;2023-04-06T09:08:47;33.9;;;30.4;;
64018;SDS011;66942;52.138;5.216;2023-04-06T09:10:23;33.8;;;30.2;;
64018;SDS011;66942;52.138;5.216;2023-04-06T09:11:59;32.5;;;29.5;;
64018;SDS011;66942;52.138;5.216;2023-04-06T09:15:21;34.4;;;31.1;;
64018;SDS011;66942;52.138;5.216;2023-04-06T09:16:57;33.0;;;30.0;;
64018;SDS011;66942;52.138;5.216;2023-04-06T09:18:33;32.71;;;29.7;;
64018;SDS011;66942;52.138;5.216;2023-04-06T09:20:10;34.21;;;30.9;;
64018;SDS011;66942;52.138;5.216;2023-04-06T09:23:23;34.6;;;30.9;;
64018;SDS011;66942;52.138;5.216;2023-04-06T09:24:59;33.9;;;30.9;;
64018;SDS011;66942;52.138;5.216;2023-04-06T09:26:50;33.4;;;30.4;;
64018;SDS011;66942;52.138;5.216;2023-04-06T09:28:26;34.81;;;31.4;;
64018;SDS011;66942;52.138;5.216;2023-04-06T09:31:40;34.81;;;31.6;;
64018;SDS011;66942;52.138;5.216;2023-04-06T09:33:23;34.71;;;31.4;;
64018;SDS011;66942;52.138;5.216;2023-04-06T09:35:06;37.1;;;33.6;;
64018;SDS011;66942;52.138;5.216;2023-04-06T09:36:43;36.1;;;32.9;;
64018;SDS011;66942;52.138;5.216;2023-04-06T09:40:02;37.4;;;33.9;;
64018;SDS011;66942;52.138;5.216;2023-04-06T09:41:39;37.5;;;33.8;;
64018;SDS011;66942;52.138;5.216;2023-04-06T09:43:22;39.31;;;35.6;;
64018;SDS011;66942;52.138;5.216;2023-04-06T09:46:36;37.31;;;33.8;;
64018;SDS011;66942;52.138;5.216;2023-04-06T09:48:15;39.6;;;35.6;;
64018;SDS011;66942;52.138;5.216;2023-04-06T09:49:55;39.5;;;35.81;;
64018;SDS011;66942;52.138;5.216;2023-04-06T09:51:36;39.5;;;35.71;;
64018;SDS011;66942;52.138;5.216;2023-04-06T09:54:55;38.5;;;34.9;;
64018;SDS011;66942;52.138;5.216;2023-04-06T09:56:38;38.5;;;35.1;;
64018;SDS011;66942;52.138;5.216;2023-04-06T09:58:21;41.0;;;36.81;;
64018;SDS011;66942;52.138;5.216;2023-04-06T10:00:01;38.9;;;35.31;;
64018;SDS011;66942;52.138;5.216;2023-04-06T10:03:19;39.6;;;35.6;;
64018;SDS011;66942;52.138;5.216;2023-04-06T10:05:05;39.5;;;35.6;;
64018;SDS011;66942;52.138;5.216;2023-04-06T10:06:48;38.6;;;34.81;;
64018;SDS011;66942;52.138;5.216;2023-04-06T10:08:24;37.5;;;33.6;;
64018;SDS011;66942;52.138;5.216;2023-04-06T10:11:40;37.0;;;33.3;;
64018;SDS011;66942;52.138;5.216;2023-04-06T10:13:19;37.31;;;33.71;;
64018;SDS011;66942;52.138;5.216;2023-04-06T10:14:56;36.0;;;32.4;;
64018;SDS011;66942;52.138;5.216;2023-04-06T10:16:32;36.9;;;33.3;;
64018;SDS011;66942;52.138;5.216;2023-04-06T10:19:46;36.31;;;32.9;;
64018;SDS011;66942;52.138;5.216;2023-04-06T10:21:39;37.4;;;33.8;;
64018;SDS011;66942;52.138;5.216;2023-04-06T10:23:20;36.1;;;32.5;;
64018;SDS011;66942;52.138;5.216;2023-04-06T10:25:05;33.6;;;30.5;;
64018;SDS011;66942;52.138;5.216;2023-04-06T10:28:33;31.5;;;28.6;;
64018;SDS011;66942;52.138;5.216;2023-04-06T10:30:15;28.2;;;25.5;;
64018;SDS011;66942;52.138;5.216;2023-04-06T10:31:51;25.4;;;23.1;;
64018;SDS011;66942;52.138;5.216;2023-04-06T10:33:27;22.2;;;20.11;;
64018;SDS011;66942;52.138;5.216;2023-04-06T10:36:43;21.7;;;19.8;;
64018;SDS011;66942;52.138;5.216;2023-04-06T10:38:19;18.7;;;17.0;;
64018;SDS011;66942;52.138;5.216;2023-04-06T10:39:55;19.0;;;17.41;;
64018;SDS011;66942;52.138;5.216;2023-04-06T10:41:32;19.41;;;17.8;;
64018;SDS011;66942;52.138;5.216;2023-04-06T10:44:49;17.11;;;15.7;;
64018;SDS011;66942;52.138;5.216;2023-04-06T10:46:25;16.2;;;14.9;;
64018;SDS011;66942;52.138;5.216;2023-04-06T10:48:20;15.0;;;13.8;;
64018;SDS011;66942;52.138;5.216;2023-04-06T10:49:56;14.6;;;13.4;;
64018;SDS011;66942;52.138;5.216;2023-04-06T10:53:20;14.4;;;13.3;;
64018;SDS011;66942;52.138;5.216;2023-04-06T10:54:58;12.9;;;11.7;;
64018;SDS011;66942;52.138;5.216;2023-04-06T10:56:36;11.9;;;11.1;;
64018;SDS011;66942;52.138;5.216;2023-04-06T10:59:52;10.9;;;10.21;;
64018;SDS011;66942;52.138;5.216;2023-04-06T11:01:28;10.6;;;9.9;;
64018;SDS011;66942;52.138;5.216;2023-04-06T11:03:04;9.5;;;8.9;;
64018;SDS011;66942;52.138;5.216;2023-04-06T11:04:40;8.81;;;8.2;;
64018;SDS011;66942;52.138;5.216;2023-04-06T11:07:55;8.2;;;7.7;;
64018;SDS011;66942;52.138;5.216;2023-04-06T11:09:31;8.6;;;8.0;;
64018;SDS011;66942;52.138;5.216;2023-04-06T11:11:08;8.6;;;8.0;;
64018;SDS011;66942;52.138;5.216;2023-04-06T11:14:28;8.6;;;8.0;;
64018;SDS011;66942;52.138;5.216;2023-04-06T11:16:04;10.0;;;9.4;;
64018;SDS011;66942;52.138;5.216;2023-04-06T11:17:40;8.5;;;8.0;;
64018;SDS011;66942;52.138;5.216;2023-04-06T11:19:16;9.5;;;8.9;;
64018;SDS011;66942;52.138;5.216;2023-04-06T11:22:30;9.71;;;9.1;;
64018;SDS011;66942;52.138;5.216;2023-04-06T11:24:07;10.0;;;9.31;;
64018;SDS011;66942;52.138;5.216;2023-04-06T11:25:49;10.7;;;10.0;;
64018;SDS011;66942;52.138;5.216;2023-04-06T11:29:03;9.9;;;9.31;;
64018;SDS011;66942;52.138;5.216;2023-04-06T11:30:40;10.0;;;9.31;;
64018;SDS011;66942;52.138;5.216;2023-04-06T11:32:20;11.0;;;10.3;;
64018;SDS011;66942;52.138;5.216;2023-04-06T11:33:57;10.21;;;9.5;;
64018;SDS011;66942;52.138;5.216;2023-04-06T11:37:10;10.4;;;9.71;;
64018;SDS011;66942;52.138;5.216;2023-04-06T11:38:47;11.1;;;10.4;;
64018;SDS011;66942;52.138;5.216;2023-04-06T11:40:24;10.4;;;9.81;;
64018;SDS011;66942;52.138;5.216;2023-04-06T11:43:37;11.0;;;10.3;;
64018;SDS011;66942;52.138;5.216;2023-04-06T11:45:14;10.4;;;9.81;;
64018;SDS011;66942;52.138;5.216;2023-04-06T11:46:51;10.6;;;9.9;;
64018;SDS011;66942;52.138;5.216;2023-04-06T11:50:05;11.7;;;10.6;;
64018;SDS011;66942;52.138;5.216;2023-04-06T11:51:43;11.9;;;11.0;;
64018;SDS011;66942;52.138;5.216;2023-04-06T11:53:19;11.3;;;10.5;;
64018;SDS011;66942;52.138;5.216;2023-04-06T11:54:55;10.9;;;10.21;;
64018;SDS011;66942;52.138;5.216;2023-04-06T11:58:07;10.9;;;10.21;;
64018;SDS011;66942;52.138;5.216;2023-04-06T11:59:43;11.3;;;10.6;;
64018;SDS011;66942;52.138;5.216;2023-04-06T12:01:20;10.3;;;9.81;;
64018;SDS011;66942;52.138;5.216;2023-04-06T12:04:33;12.2;;;11.4;;
64018;SDS011;66942;52.138;5.216;2023-04-06T12:06:09;12.4;;;11.5;;
64018;SDS011;66942;52.138;5.216;2023-04-06T12:07:45;11.8;;;11.1;;
64018;SDS011;66942;52.138;5.216;2023-04-06T12:10:57;13.4;;;12.6;;
64018;SDS011;66942;52.138;5.216;2023-04-06T12:12:33;12.4;;;11.7;;
64018;SDS011;66942;52.138;5.216;2023-04-06T12:14:10;14.5;;;13.4;;
64018;SDS011;66942;52.138;5.216;2023-04-06T12:15:46;14.7;;;13.7;;
64018;SDS011;66942;52.138;5.216;2023-04-06T12:18:59;15.0;;;13.9;;
64018;SDS011;66942;52.138;5.216;2023-04-06T12:20:35;15.3;;;14.2;;
64018;SDS011;66942;52.138;5.216;2023-04-06T12:22:11;15.4;;;14.4;;
64018;SDS011;66942;52.138;5.216;2023-04-06T12:25:23;16.4;;;15.1;;
64018;SDS011;66942;52.138;5.216;2023-04-06T12:26:59;17.11;;;15.8;;
64018;SDS011;66942;52.138;5.216;2023-04-06T12:28:35;17.3;;;16.11;;
64018;SDS011;66942;52.138;5.216;2023-04-06T12:31:48;18.2;;;16.7;;
64018;SDS011;66942;52.138;5.216;2023-04-06T12:33:24;17.5;;;16.2;;
64018;SDS011;66942;52.138;5.216;2023-04-06T12:35:00;17.7;;;16.4;;
64018;SDS011;66942;52.138;5.216;2023-04-06T12:36:36;18.7;;;17.3;;
64018;SDS011;66942;52.138;5.216;2023-04-06T12:39:49;18.0;;;16.7;;
64018;SDS011;66942;52.138;5.216;2023-04-06T12:41:26;18.41;;;17.0;;